Time;durP1;ratioP1;P1;durP2;ratioP2;P2;SDS_P1;SDS_P2;PMS_P1;PMS_P2;Temp;Humidity;BMP_temperature;BMP_pressure;BME280_temperature;BME280_humidity;BME280_pressure;Samples;Min_cycle;Max_cycle;Signal;HPM_P1;HPM_P2
2021/09/29 00:00:55;;;;;;;7.00;4.50;;;;;;;16.13;67.82;102039.00;5134338;27;20235;-61
2021/09/29 00:03:21;;;;;;;8.50;4.40;;;;;;;16.33;67.33;102086.47;5134320;27;20556;-61
2021/09/29 00:05:46;;;;;;;7.83;4.30;;;;;;;16.27;67.05;102089.03;5134195;27;20189;-61
2021/09/29 00:08:12;;;;;;;7.67;4.27;;;;;;;16.34;67.07;102096.47;5134606;27;20172;-61
2021/09/29 00:10:42;;;;;;;7.73;4.30;;;;;;;16.28;66.50;102096.19;5134283;27;20185;-61
2021/09/29 00:13:08;;;;;;;8.80;4.27;;;;;;;16.29;66.63;102102.59;5134121;27;20173;-61
2021/09/29 00:15:34;;;;;;;7.43;4.03;;;;;;;16.30;67.00;102106.94;5115542;27;20303;-61
2021/09/29 00:18:00;;;;;;;6.67;4.40;;;;;;;16.34;66.92;102104.88;5134358;27;20368;-61
2021/09/29 00:20:25;;;;;;;5.60;4.20;;;;;;;16.35;66.37;102110.00;5134014;27;20586;-61
2021/09/29 00:22:51;;;;;;;8.47;4.70;;;;;;;16.38;66.49;102113.94;5114918;27;20181;-61
2021/09/29 00:25:17;;;;;;;7.90;4.03;;;;;;;16.40;66.21;102120.69;5115751;27;20326;-61
2021/09/29 00:27:44;;;;;;;8.17;4.17;;;;;;;16.21;66.51;102101.16;5133886;27;20169;-61
2021/09/29 00:30:10;;;;;;;6.37;3.63;;;;;;;16.34;66.26;102118.84;5134215;27;20184;-61
2021/09/29 00:32:43;;;;;;;6.57;3.83;;;;;;;16.47;66.50;102119.75;5133508;27;20576;-61
2021/09/29 00:35:11;;;;;;;7.70;3.80;;;;;;;16.40;66.29;102119.94;5113610;28;20684;-61
2021/09/29 00:37:37;;;;;;;8.50;4.10;;;;;;;16.40;66.74;102120.69;5113061;28;20178;-61
2021/09/29 00:40:07;;;;;;;7.50;4.20;;;;;;;16.39;66.31;102130.31;5113106;28;20565;-61
2021/09/29 00:42:33;;;;;;;10.83;4.17;;;;;;;16.40;66.30;102134.69;5112792;28;20183;-61
2021/09/29 00:44:58;;;;;;;8.40;4.10;;;;;;;16.45;66.13;102134.16;5115335;27;20193;-61
2021/09/29 00:47:24;;;;;;;6.33;4.13;;;;;;;16.51;65.67;102123.25;5133647;27;20178;-61
2021/09/29 00:49:49;;;;;;;9.13;3.80;;;;;;;16.54;65.82;102139.94;5132550;27;20173;-61
2021/09/29 00:52:15;;;;;;;7.23;3.83;;;;;;;16.66;66.47;102133.66;5133290;27;20622;-61
2021/09/29 00:54:41;;;;;;;7.63;3.60;;;;;;;16.73;66.10;102137.50;5133242;27;20182;-61
2021/09/29 00:57:08;;;;;;;5.33;4.00;;;;;;;16.67;65.87;102135.25;5133244;27;20183;-61
2021/09/29 00:59:34;;;;;;;7.80;4.07;;;;;;;16.62;65.82;102143.38;5133025;27;20697;-61
2021/09/29 01:02:00;;;;;;;9.23;4.00;;;;;;;16.36;65.94;102135.97;5133042;27;20174;-61
2021/09/29 01:04:27;;;;;;;9.07;3.80;;;;;;;16.34;66.09;102138.44;5133279;27;20178;-61
2021/09/29 01:07:09;;;;;;;6.17;4.07;;;;;;;16.43;66.21;102138.63;5133626;27;20608;-61
2021/09/29 01:09:47;;;;;;;9.20;4.07;;;;;;;16.32;66.08;102146.47;5133189;27;20590;-60
2021/09/29 01:12:34;;;;;;;8.47;3.63;;;;;;;16.36;66.13;102135.97;5132952;27;20169;-60
2021/09/29 01:15:05;;;;;;;10.70;3.73;;;;;;;16.21;66.39;102143.91;5114802;27;20244;-61
2021/09/29 01:17:35;;;;;;;10.90;3.67;;;;;;;16.20;66.37;102145.16;5132913;27;20238;-61
2021/09/29 01:20:26;;;;;;;7.57;4.00;;;;;;;16.20;66.44;102152.75;5133323;27;20207;-61
2021/09/29 01:23:17;;;;;;;6.00;3.60;;;;;;;16.16;66.35;102144.44;5132389;27;20185;-61
2021/09/29 01:25:57;;;;;;;9.23;3.83;;;;;;;16.10;66.14;102142.59;5132674;27;20174;-61
2021/09/29 01:28:34;;;;;;;7.43;3.70;;;;;;;15.70;66.44;102094.34;5132944;27;20182;-61
2021/09/29 01:31:01;;;;;;;8.33;3.90;;;;;;;16.05;66.45;102151.47;5132568;27;20180;-61
2021/09/29 01:33:30;;;;;;;7.93;3.80;;;;;;;15.54;66.79;102068.34;5132403;27;20186;-61
2021/09/29 01:35:55;;;;;;;8.13;4.00;;;;;;;16.06;65.69;102148.25;5132500;27;20587;-61
2021/09/29 01:38:22;;;;;;;5.20;3.80;;;;;;;15.60;65.99;102077.78;5132712;27;20181;-61
2021/09/29 01:40:47;;;;;;;8.43;4.00;;;;;;;15.53;66.86;102081.50;5132192;27;20668;-61
2021/09/29 01:43:13;;;;;;;7.60;3.70;;;;;;;16.01;66.63;102153.56;5132620;27;20251;-61
2021/09/29 01:45:38;;;;;;;6.53;3.77;;;;;;;15.84;66.87;102152.72;5132023;27;20650;-61
2021/09/29 01:48:05;;;;;;;5.03;3.80;;;;;;;15.87;66.92;102142.69;5132505;27;20233;-61
2021/09/29 01:50:31;;;;;;;5.37;3.97;;;;;;;15.97;66.57;102159.25;5113756;27;20707;-61
2021/09/29 01:52:59;;;;;;;5.77;3.80;;;;;;;15.84;66.64;102118.41;5131946;27;20177;-61
2021/09/29 01:55:27;;;;;;;9.60;4.13;;;;;;;15.79;66.77;102124.50;5132353;27;20739;-61
2021/09/29 01:57:53;;;;;;;12.30;4.63;;;;;;;15.90;66.32;102141.81;5132306;27;20188;-61
2021/09/29 02:00:19;;;;;;;4.53;3.57;;;;;;;15.74;67.16;102147.38;5132160;27;20193;-61
2021/09/29 02:02:45;;;;;;;7.10;4.00;;;;;;;15.72;67.35;102147.03;5131714;27;20285;-61
2021/09/29 02:05:12;;;;;;;6.57;4.33;;;;;;;15.60;67.41;102125.28;5132577;27;20662;-61
2021/09/29 02:07:39;;;;;;;7.97;4.80;;;;;;;15.83;66.65;102155.97;5113600;27;20186;-61
2021/09/29 02:10:07;;;;;;;9.80;4.43;;;;;;;15.64;66.80;102137.19;5132020;27;20265;-61
2021/09/29 02:12:34;;;;;;;6.77;4.40;;;;;;;15.74;67.49;102164.13;5131548;27;20726;-61
2021/09/29 02:15:00;;;;;;;9.10;5.00;;;;;;;15.88;67.06;102167.41;5132063;27;20185;-61
2021/09/29 02:17:26;;;;;;;8.90;4.90;;;;;;;15.85;66.60;102167.50;5131536;27;20240;-61
2021/09/29 02:19:51;;;;;;;6.77;4.40;;;;;;;16.00;67.58;102169.56;5131409;27;20701;-61
2021/09/29 02:22:17;;;;;;;7.63;4.77;;;;;;;16.08;66.80;102170.97;5131746;27;20177;-61
2021/09/29 02:24:44;;;;;;;6.63;4.27;;;;;;;16.08;66.80;102168.19;5131595;27;20224;-61
2021/09/29 02:27:10;;;;;;;7.40;4.33;;;;;;;16.00;66.39;102175.16;5131906;27;20537;-61
2021/09/29 02:29:35;;;;;;;10.03;4.40;;;;;;;15.81;66.39;102152.81;5131581;27;20225;-61
2021/09/29 02:32:01;;;;;;;6.60;4.43;;;;;;;15.90;66.49;102178.97;5131160;27;20180;-61
2021/09/29 02:34:26;;;;;;;7.87;4.13;;;;;;;15.77;66.46;102180.84;5131363;27;20678;-61
2021/09/29 02:36:52;;;;;;;5.50;4.07;;;;;;;15.70;66.28;102171.81;5131409;27;20538;-61
2021/09/29 02:39:17;;;;;;;7.43;4.60;;;;;;;15.73;66.68;102176.53;5131404;27;20256;-61
2021/09/29 02:41:43;;;;;;;7.03;4.40;;;;;;;15.75;66.56;102186.06;5130897;27;20177;-61
2021/09/29 02:44:09;;;;;;;8.63;4.80;;;;;;;15.77;66.91;102188.44;5131563;27;20207;-61
2021/09/29 02:46:40;;;;;;;6.63;4.40;;;;;;;15.67;66.94;102181.06;5131180;27;20237;-61
2021/09/29 02:49:06;;;;;;;6.87;4.80;;;;;;;15.54;67.11;102188.50;5131520;27;20596;-61
2021/09/29 02:51:32;;;;;;;5.83;4.23;;;;;;;15.56;66.98;102183.25;5112377;27;20196;-61
2021/09/29 02:53:57;;;;;;;6.53;4.43;;;;;;;15.61;67.34;102191.94;5131054;27;20174;-61
2021/09/29 02:56:23;;;;;;;6.27;4.33;;;;;;;15.67;67.57;102184.63;5131456;27;20185;-61
2021/09/29 02:58:49;;;;;;;8.80;4.60;;;;;;;15.57;67.22;102185.63;5130640;27;20202;-61
2021/09/29 03:01:15;;;;;;;6.10;4.70;;;;;;;15.49;67.37;102189.00;5130838;27;20677;-61
2021/09/29 03:03:40;;;;;;;6.17;4.20;;;;;;;15.46;67.67;102182.25;5130771;27;20177;-61
2021/09/29 03:06:06;;;;;;;6.00;4.40;;;;;;;15.08;67.82;102127.91;5131407;27;20604;-60
2021/09/29 03:08:31;;;;;;;7.43;4.40;;;;;;;15.44;68.27;102186.69;5112810;28;20173;-61
2021/09/29 03:10:57;;;;;;;7.23;4.60;;;;;;;15.44;67.48;102187.50;5130839;28;20188;-61
2021/09/29 03:13:22;;;;;;;11.37;5.00;;;;;;;15.25;68.14;102181.81;5130569;27;20181;-60
2021/09/29 03:15:48;;;;;;;6.97;4.20;;;;;;;15.32;68.48;102201.28;5130681;28;20246;-61
2021/09/29 03:18:14;;;;;;;6.97;5.03;;;;;;;15.35;68.40;102201.22;5131104;28;20225;-61
2021/09/29 03:20:40;;;;;;;6.50;4.43;;;;;;;15.38;68.65;102200.34;5130534;28;20240;-61
2021/09/29 03:23:06;;;;;;;9.33;4.70;;;;;;;15.21;68.68;102179.09;5130949;28;20196;-60
2021/09/29 03:25:32;;;;;;;9.27;4.47;;;;;;;15.31;69.11;102210.88;5131040;28;20469;-60
2021/09/29 03:27:58;;;;;;;8.87;4.60;;;;;;;15.26;69.44;102205.78;5130822;28;20534;-60
2021/09/29 03:30:23;;;;;;;5.57;4.40;;;;;;;15.18;70.46;102204.31;5131013;28;20234;-60
2021/09/29 03:32:49;;;;;;;8.57;4.67;;;;;;;15.01;71.21;102197.81;5130561;28;20181;-60
2021/09/29 03:35:14;;;;;;;8.90;5.47;;;;;;;15.02;71.58;102209.78;5130948;28;20193;-60
2021/09/29 03:37:40;;;;;;;9.07;4.97;;;;;;;14.95;71.91;102207.88;5130561;28;20559;-60
2021/09/29 03:40:08;;;;;;;7.50;4.80;;;;;;;14.92;72.20;102205.16;5130800;28;20209;-60
2021/09/29 03:42:34;;;;;;;7.00;5.23;;;;;;;14.79;73.10;102206.97;5130228;28;20182;-62
2021/09/29 03:44:59;;;;;;;6.47;5.37;;;;;;;14.82;73.41;102208.91;5131081;28;20188;-62
2021/09/29 03:47:25;;;;;;;6.87;4.90;;;;;;;14.44;73.07;102135.78;5130959;28;20184;-62
2021/09/29 03:49:51;;;;;;;8.63;5.13;;;;;;;14.32;73.28;102174.63;5130379;28;20180;-62
2021/09/29 03:52:16;;;;;;;8.90;5.50;;;;;;;14.68;73.76;102209.13;5130462;28;20182;-62
2021/09/29 03:54:42;;;;;;;8.90;5.27;;;;;;;14.58;73.54;102199.72;5130822;28;20184;-62
2021/09/29 03:57:07;;;;;;;6.60;5.07;;;;;;;14.80;73.44;102156.31;5126546;28;20192;-67
2021/09/29 03:59:32;;;;;;;5.03;4.20;;;;;;;15.57;69.93;102152.09;5127451;28;20190;-68
2021/09/29 04:01:58;;;;;;;5.67;4.23;;;;;;;16.39;68.35;102213.50;5129288;28;20188;-67
2021/09/29 04:04:24;;;;;;;6.93;3.93;;;;;;;16.29;67.42;102127.75;5129982;28;20259;-66
2021/09/29 04:06:49;;;;;;;5.80;3.93;;;;;;;16.58;66.58;102190.25;5129878;28;20185;-64
2021/09/29 04:09:15;;;;;;;7.80;4.13;;;;;;;16.55;66.17;102205.13;5129265;28;20178;-64
2021/09/29 04:11:40;;;;;;;6.70;3.70;;;;;;;16.60;66.96;102215.78;5129470;28;20170;-65
2021/09/29 04:14:07;;;;;;;4.70;3.70;;;;;;;17.06;66.43;102207.81;5111481;28;20200;-64
2021/09/29 04:16:33;;;;;;;6.47;3.47;;;;;;;17.39;64.71;102214.22;5111788;28;20635;-68
2021/09/29 04:19:00;;;;;;;5.57;3.83;;;;;;;16.90;66.70;102179.84;5129206;28;20213;-67
2021/09/29 04:21:26;;;;;;;7.73;3.80;;;;;;;17.88;68.74;102214.84;5129463;28;20230;-67
2021/09/29 04:23:51;;;;;;;5.20;3.60;;;;;;;17.98;66.46;102220.16;5129999;27;20184;-63
2021/09/29 04:26:17;;;;;;;6.67;3.70;;;;;;;18.23;64.04;102222.22;5131877;27;20564;-62
2021/09/29 04:28:42;;;;;;;4.00;3.30;;;;;;;18.29;63.47;102216.38;5132164;27;20619;-63
2021/09/29 04:31:08;;;;;;;6.27;3.50;;;;;;;18.11;63.20;102217.38;5132288;27;20214;-64
2021/09/29 04:33:34;;;;;;;5.17;3.13;;;;;;;17.96;63.31;102219.03;5132844;27;20785;-62
2021/09/29 04:36:00;;;;;;;6.77;3.40;;;;;;;17.78;63.27;102217.50;5133289;27;20674;-64
2021/09/29 04:38:25;;;;;;;5.23;2.90;;;;;;;17.83;63.11;102235.03;5132766;27;20178;-63
2021/09/29 04:40:51;;;;;;;7.33;3.33;;;;;;;17.95;62.92;102226.66;5131422;27;20602;-64
2021/09/29 04:43:16;;;;;;;4.10;3.33;;;;;;;17.42;62.30;102168.50;5132557;27;20187;-65
2021/09/29 04:45:42;;;;;;;6.20;3.57;;;;;;;17.35;62.67;102224.69;5125116;27;20241;-64
2021/09/29 04:48:08;;;;;;;5.50;3.77;;;;;;;16.93;63.41;102234.19;5104394;27;20290;-63
2021/09/29 04:50:34;;;;;;;7.40;3.77;;;;;;;16.74;64.41;102241.44;5118061;27;20192;-61
2021/09/29 04:53:01;;;;;;;4.97;3.67;;;;;;;16.46;64.88;102241.31;5118284;27;20191;-61
2021/09/29 04:55:28;;;;;;;5.57;3.57;;;;;;;16.22;65.73;102239.81;5119912;27;20194;-60
2021/09/29 04:57:54;;;;;;;6.10;4.07;;;;;;;15.76;66.82;102215.59;5126879;27;20266;-60
2021/09/29 05:00:20;;;;;;;5.67;3.70;;;;;;;15.72;67.15;102225.28;5127934;27;20675;-60
2021/09/29 05:02:48;;;;;;;5.60;3.63;;;;;;;15.66;66.91;102247.34;5127468;27;20673;-60
2021/09/29 05:05:14;;;;;;;5.80;4.20;;;;;;;15.70;67.70;102250.06;5125727;27;20216;-60
2021/09/29 05:07:40;;;;;;;8.07;4.10;;;;;;;15.55;67.84;102254.34;5130585;27;20187;-60
2021/09/29 05:10:10;;;;;;;5.83;3.90;;;;;;;15.43;67.95;102264.13;5129954;27;20230;-60
2021/09/29 05:12:36;;;;;;;5.60;3.80;;;;;;;15.42;67.93;102254.16;5130568;27;20330;-60
2021/09/29 05:15:02;;;;;;;7.40;3.90;;;;;;;15.30;67.80;102253.97;5130199;27;20260;-60
2021/09/29 05:17:27;;;;;;;7.30;4.00;;;;;;;15.28;68.14;102257.19;5130953;27;20746;-61
2021/09/29 05:19:53;;;;;;;4.77;3.50;;;;;;;15.22;68.46;102260.91;5130607;27;20694;-60
2021/09/29 05:22:19;;;;;;;5.87;4.00;;;;;;;14.29;68.94;102147.59;5131592;27;20949;-61
2021/09/29 05:24:44;;;;;;;6.43;4.00;;;;;;;14.93;69.00;102259.78;5130552;27;20238;-61
2021/09/29 05:27:10;;;;;;;5.20;3.10;;;;;;;14.95;69.01;102260.94;5131423;27;20709;-61
2021/09/29 05:29:40;;;;;;;7.87;4.13;;;;;;;14.99;69.40;102272.03;5120912;27;20443;-61
2021/09/29 05:32:07;;;;;;;6.30;3.70;;;;;;;14.98;69.07;102268.47;5129428;27;20283;-60
2021/09/29 05:34:33;;;;;;;7.40;3.50;;;;;;;15.02;69.20;102276.78;5125226;27;20246;-68
2021/09/29 05:36:59;;;;;;;5.40;3.80;;;;;;;15.04;68.91;102268.75;5129802;27;20269;-61
2021/09/29 05:39:24;;;;;;;9.43;3.53;;;;;;;15.04;69.03;102268.75;5125528;27;20327;-62
2021/09/29 05:41:50;;;;;;;6.00;3.90;;;;;;;14.86;69.05;102265.47;5128539;27;20693;-62
2021/09/29 05:44:15;;;;;;;6.00;3.73;;;;;;;14.88;68.89;102269.44;5130556;27;20184;-63
2021/09/29 05:46:41;;;;;;;9.13;3.87;;;;;;;14.83;68.88;102255.16;5124501;27;20189;-61
2021/09/29 05:49:06;;;;;;;6.00;4.00;;;;;;;14.91;69.13;102282.53;5102501;27;20301;-60
2021/09/29 05:51:32;;;;;;;7.33;3.70;;;;;;;14.82;68.77;102279.50;5108285;27;20247;-63
2021/09/29 05:53:57;;;;;;;5.93;3.70;;;;;;;14.41;69.28;102225.09;5128988;27;20188;-61
2021/09/29 05:56:23;;;;;;;5.40;3.90;;;;;;;14.86;69.00;102290.59;5122759;27;20192;-61
2021/09/29 05:58:49;;;;;;;6.33;4.00;;;;;;;14.84;69.10;102293.81;5120842;27;20267;-61
2021/09/29 06:01:14;;;;;;;7.17;3.60;;;;;;;14.93;68.56;102291.28;5127334;27;20583;-61
2021/09/29 06:03:40;;;;;;;6.53;3.90;;;;;;;14.93;68.56;102294.06;5128140;27;20205;-61
2021/09/29 06:06:06;;;;;;;6.57;3.60;;;;;;;14.91;68.64;102304.09;5126551;27;20678;-61
2021/09/29 06:08:32;;;;;;;7.37;4.20;;;;;;;14.79;69.24;102257.19;5126148;27;20265;-61
2021/09/29 06:10:57;;;;;;;9.27;3.83;;;;;;;15.01;67.79;102300.34;5123094;27;20669;-61
2021/09/29 06:13:24;;;;;;;4.77;3.50;;;;;;;14.74;68.42;102274.41;5127644;27;20181;-61
2021/09/29 06:15:50;;;;;;;6.53;3.70;;;;;;;14.94;68.44;102311.59;5127253;27;20266;-61
2021/09/29 06:18:17;;;;;;;6.90;4.00;;;;;;;14.77;68.53;102279.97;5128622;27;20238;-61
2021/09/29 06:20:51;;;;;;;6.73;4.00;;;;;;;15.11;68.35;102316.91;5128137;27;20212;-61
2021/09/29 06:23:18;;;;;;;6.10;3.97;;;;;;;15.30;68.26;102321.81;5127388;27;20208;-60
2021/09/29 06:25:43;;;;;;;6.30;3.90;;;;;;;15.23;67.84;102321.94;5128757;27;20212;-62
2021/09/29 06:28:09;;;;;;;7.17;3.70;;;;;;;15.25;67.64;102324.28;5129537;27;20655;-61
2021/09/29 06:30:35;;;;;;;5.47;3.80;;;;;;;15.14;67.62;102313.28;5127823;27;20840;-61
2021/09/29 06:33:01;;;;;;;7.70;3.70;;;;;;;15.20;67.69;102316.38;5126688;27;20181;-61
2021/09/29 06:35:29;;;;;;;5.07;3.40;;;;;;;15.18;68.21;102329.97;5125406;27;20573;-62
2021/09/29 06:37:56;;;;;;;5.53;3.87;;;;;;;15.14;68.30;102309.69;5127653;27;20568;-60
2021/09/29 06:40:21;;;;;;;8.37;4.17;;;;;;;15.21;68.10;102329.91;5127369;27;20685;-60
2021/09/29 06:42:47;;;;;;;6.60;4.20;;;;;;;15.22;68.18;102323.13;5123354;27;20223;-60
2021/09/29 06:45:14;;;;;;;8.67;4.20;;;;;;;15.25;67.61;102332.66;5124449;27;20629;-59
2021/09/29 06:47:40;;;;;;;6.40;3.87;;;;;;;15.22;67.58;102313.97;5116136;27;20641;-59
2021/09/29 06:50:12;;;;;;;7.13;3.80;;;;;;;15.33;68.09;102329.38;5123357;27;20570;-60
2021/09/29 06:52:37;;;;;;;6.83;3.73;;;;;;;15.23;67.59;102301.56;5118712;27;20264;-60
2021/09/29 06:55:05;;;;;;;6.40;3.67;;;;;;;15.08;67.38;102291.84;5126478;27;20260;-60
2021/09/29 06:57:31;;;;;;;6.00;3.80;;;;;;;15.32;67.09;102330.53;5125759;27;20181;-60
2021/09/29 06:59:57;;;;;;;5.27;3.30;;;;;;;15.30;67.25;102335.78;5127064;27;20211;-60
2021/09/29 07:02:22;;;;;;;6.23;3.70;;;;;;;15.24;67.89;102339.47;5127146;27;20658;-60
2021/09/29 07:04:48;;;;;;;5.30;3.70;;;;;;;15.34;67.37;102346.91;5117866;27;20191;-60
2021/09/29 07:07:13;;;;;;;7.53;3.77;;;;;;;15.10;67.66;102317.31;5099204;27;20190;-60
2021/09/29 07:09:39;;;;;;;9.23;4.23;;;;;;;15.22;67.42;102355.84;5117959;27;20583;-60
2021/09/29 07:12:06;;;;;;;5.77;4.00;;;;;;;15.27;66.78;102350.56;5120455;28;20187;-60
2021/09/29 07:14:31;;;;;;;9.00;4.10;;;;;;;15.26;67.02;102353.81;5119520;28;20526;-60
2021/09/29 07:16:57;;;;;;;7.23;3.50;;;;;;;15.31;66.91;102350.53;5087243;28;20309;-60
2021/09/29 07:19:23;;;;;;;4.03;3.47;;;;;;;15.53;66.81;102355.34;5106598;28;20228;-60
2021/09/29 07:21:48;;;;;;;4.97;3.40;;;;;;;15.43;66.46;102352.75;5126842;28;20217;-60
2021/09/29 07:24:14;;;;;;;4.60;3.43;;;;;;;15.08;66.38;102306.59;5126272;28;20249;-60
2021/09/29 07:26:39;;;;;;;5.13;3.70;;;;;;;15.48;66.53;102361.44;5125535;28;20193;-60
2021/09/29 07:29:05;;;;;;;6.47;3.40;;;;;;;15.50;66.59;102361.81;5125997;28;20546;-60
2021/09/29 07:31:30;;;;;;;6.50;4.10;;;;;;;15.50;65.93;102363.81;5128039;28;20276;-60
2021/09/29 07:33:57;;;;;;;6.00;3.80;;;;;;;15.40;66.29;102370.34;5126809;28;20181;-60
2021/09/29 07:36:23;;;;;;;6.57;3.27;;;;;;;15.10;66.37;102306.16;5127584;28;20191;-60
2021/09/29 07:38:49;;;;;;;6.27;3.80;;;;;;;15.54;66.36;102372.94;5126026;28;20181;-60
2021/09/29 07:41:15;;;;;;;8.10;4.30;;;;;;;15.64;66.00;102378.34;5127540;28;20230;-60
2021/09/29 07:43:40;;;;;;;6.43;3.70;;;;;;;15.48;65.03;102389.38;5121822;28;20173;-61
2021/09/29 07:46:07;;;;;;;8.33;3.80;;;;;;;15.51;64.55;102379.34;5127063;28;20564;-60
2021/09/29 07:48:33;;;;;;;5.93;3.70;;;;;;;15.58;64.70;102382.81;5125599;28;20327;-60
2021/09/29 07:50:59;;;;;;;5.73;3.50;;;;;;;15.63;64.12;102381.56;5125320;28;20197;-60
2021/09/29 07:53:25;;;;;;;12.00;3.50;;;;;;;15.55;64.07;102368.91;5126001;28;20186;-60
2021/09/29 07:55:55;;;;;;;5.63;3.53;;;;;;;15.47;64.14;102345.09;5107632;28;20589;-60
2021/09/29 07:58:27;;;;;;;5.93;3.50;;;;;;;15.74;63.62;102334.66;5127358;27;20181;-60
2021/09/29 08:00:53;;;;;;;5.37;3.17;;;;;;;15.66;63.73;102319.22;5124706;27;20251;-61
2021/09/29 08:03:18;;;;;;;7.17;3.53;;;;;;;15.79;62.83;102348.13;5128500;27;20189;-60
2021/09/29 08:05:45;;;;;;;6.00;3.20;;;;;;;16.22;62.75;102388.88;5128795;27;20886;-60
2021/09/29 08:08:11;;;;;;;5.80;3.23;;;;;;;15.62;62.05;102330.44;5130922;27;20268;-60
2021/09/29 08:10:37;;;;;;;4.03;2.90;;;;;;;15.35;62.26;102293.41;5130633;27;20628;-60
2021/09/29 08:13:03;;;;;;;5.03;3.03;;;;;;;15.86;62.18;102390.72;5125783;27;20231;-59
2021/09/29 08:15:28;;;;;;;6.03;3.00;;;;;;;16.02;62.03;102399.22;5130172;27;20202;-60
2021/09/29 08:17:57;;;;;;;6.17;3.20;;;;;;;16.06;62.04;102397.16;5127635;27;20233;-59
2021/09/29 08:20:25;;;;;;;6.67;3.20;;;;;;;16.20;61.55;102401.69;5127327;27;20204;-60
2021/09/29 08:22:57;;;;;;;4.20;2.60;;;;;;;16.31;61.46;102407.88;5128673;27;20196;-59
2021/09/29 08:25:48;;;;;;;4.00;2.87;;;;;;;16.23;61.26;102401.63;5129321;27;20173;-59
2021/09/29 08:28:40;;;;;;;4.37;2.57;;;;;;;16.17;60.97;102377.38;5127189;27;20370;-59
2021/09/29 08:38:53;;;;;;;4.70;2.90;;;;;;;16.01;59.52;102355.72;5130061;27;20280;-60
2021/09/29 08:44:29;;;;;;;5.13;2.93;;;;;;;16.02;60.21;102370.47;5125979;27;20280;-60
2021/09/29 08:47:18;;;;;;;5.80;3.03;;;;;;;16.39;60.71;102412.94;5125089;27;20409;-60
2021/09/29 09:17:27;;;;;;;7.30;3.37;;;;;;;16.27;61.30;102426.72;5128752;27;20328;-60
2021/09/29 09:19:53;;;;;;;4.90;3.40;;;;;;;16.14;61.16;102426.56;5109590;27;20708;-59
2021/09/29 09:22:19;;;;;;;6.20;3.20;;;;;;;16.21;61.88;102432.06;5130863;27;20172;-60
2021/09/29 09:24:52;;;;;;;6.77;3.30;;;;;;;16.29;61.81;102432.72;5129922;27;20180;-60
2021/09/29 09:27:18;;;;;;;6.23;3.33;;;;;;;16.14;61.74;102411.81;5130035;27;20615;-59
2021/09/29 09:29:44;;;;;;;7.03;3.13;;;;;;;16.36;61.58;102430.56;5128393;27;20218;-60
2021/09/29 09:32:12;;;;;;;9.27;3.20;;;;;;;16.48;61.43;102429.94;5112259;27;20256;-59
2021/09/29 09:34:38;;;;;;;6.97;3.47;;;;;;;16.62;60.64;102428.88;5129934;27;20611;-59
2021/09/29 09:37:11;;;;;;;5.60;2.93;;;;;;;16.66;60.77;102435.19;5130028;27;20182;-59
2021/09/29 09:39:38;;;;;;;6.87;3.60;;;;;;;16.28;60.09;102367.56;5127919;27;20195;-59
2021/09/29 09:42:06;;;;;;;5.83;3.13;;;;;;;16.62;59.81;102436.50;5128245;27;20177;-60
2021/09/29 09:44:34;;;;;;;5.97;2.90;;;;;;;16.59;60.91;102438.16;5128380;27;20181;-61
2021/09/29 09:47:05;;;;;;;6.00;3.50;;;;;;;16.41;61.67;102437.69;5126150;27;20330;-59
2021/09/29 09:49:50;;;;;;;7.93;3.10;;;;;;;16.19;61.93;102392.50;5126844;27;20182;-59
2021/09/29 09:52:33;;;;;;;6.10;3.77;;;;;;;16.27;61.70;102441.53;5124592;27;20194;-60
2021/09/29 09:55:05;;;;;;;7.13;3.70;;;;;;;16.13;62.72;102441.00;5128714;27;20245;-60
2021/09/29 09:57:33;;;;;;;6.07;3.67;;;;;;;16.14;62.90;102446.16;5125819;27;20202;-60
2021/09/29 09:59:58;;;;;;;5.50;3.80;;;;;;;16.34;63.24;102443.41;5127300;27;20548;-60
2021/09/29 10:02:24;;;;;;;6.50;4.10;;;;;;;16.30;63.43;102434.28;5127659;27;20191;-62
2021/09/29 10:04:50;;;;;;;4.77;3.60;;;;;;;16.25;63.24;102424.34;5125741;27;20186;-61
2021/09/29 10:07:16;;;;;;;8.97;4.13;;;;;;;16.40;63.32;102431.28;5109380;27;20186;-61
2021/09/29 10:10:06;;;;;;;5.53;3.90;;;;;;;16.38;63.04;102433.72;5124692;27;20180;-61
2021/09/29 10:13:34;;;;;;;5.33;4.17;;;;;;;16.10;63.54;102425.88;5125367;27;20678;-61
2021/09/29 10:27:18;;;;;;;6.77;4.77;;;;;;;16.52;63.96;102441.88;5129280;27;20196;-61
2021/09/29 10:29:51;;;;;;;9.37;4.57;;;;;;;16.68;63.56;102446.75;5126799;27;20161;-61
2021/09/29 10:32:29;;;;;;;6.80;4.00;;;;;;;16.54;62.03;102422.63;5109082;27;20344;-61
2021/09/29 10:41:08;;;;;;;7.03;3.77;;;;;;;16.86;60.78;102447.97;5125979;27;20194;-61
2021/09/29 10:43:23;;;;;;;10.57;4.03;;;;;;;16.62;60.85;102420.47;5116064;27;20293;-61
2021/09/29 10:46:17;;;;;;;10.10;3.90;;;;;;;16.98;60.53;102450.13;5123513;27;20662;-62
2021/09/29 11:30:46;;;;;;;5.03;3.53;;;;;;;17.29;57.02;102423.41;5085415;28;20401;-62
2021/09/29 11:33:34;;;;;;;5.60;3.77;;;;;;;17.24;57.75;102423.94;5106854;27;20588;-62
2021/09/29 12:09:33;;;;;;;7.80;4.33;;;;;;;16.56;58.55;102416.59;5128215;27;20283;-62
2021/09/29 12:12:15;;;;;;;9.37;4.80;;;;;;;16.60;58.46;102415.31;5128524;27;20233;-62
2021/09/29 12:14:43;;;;;;;6.77;4.47;;;;;;;16.52;59.04;102419.47;5130577;27;20184;-62
2021/09/29 12:17:11;;;;;;;6.33;4.37;;;;;;;16.34;58.96;102412.63;5107584;27;20780;-60
2021/09/29 12:19:39;;;;;;;8.57;4.77;;;;;;;16.25;59.78;102413.16;5098342;27;20212;-61
2021/09/29 12:22:17;;;;;;;7.83;4.00;;;;;;;16.16;60.01;102392.56;5125853;27;20184;-61
2021/09/29 12:27:34;;;;;;;5.43;3.83;;;;;;;16.34;60.30;102421.78;5120749;27;20219;-60
2021/09/29 12:30:21;;;;;;;6.97;4.10;;;;;;;16.35;60.62;102426.16;5126148;27;20180;-61
2021/09/29 12:33:42;;;;;;;7.23;3.90;;;;;;;16.47;60.76;102421.97;5131808;27;20415;-61
2021/09/29 12:36:04;;;;;;;6.03;3.60;;;;;;;16.14;61.62;102381.81;5125061;27;20237;-62
2021/09/29 12:38:36;;;;;;;4.83;3.70;;;;;;;16.31;62.03;102419.88;5123080;27;20597;-60
2021/09/29 12:41:02;;;;;;;6.23;3.83;;;;;;;16.35;62.37;102403.78;5129138;27;20204;-59
2021/09/29 12:43:28;;;;;;;6.67;3.77;;;;;;;16.48;62.18;102421.56;5111360;27;20267;-63
2021/09/29 12:45:53;;;;;;;6.57;3.83;;;;;;;16.36;62.45;102422.16;5126887;27;20283;-62
2021/09/29 12:48:23;;;;;;;4.70;3.53;;;;;;;16.20;62.67;102385.72;5112757;27;20262;-60
2021/09/29 12:51:04;;;;;;;5.93;3.57;;;;;;;16.49;63.20;102414.72;5124439;27;20178;-62
2021/09/29 12:53:38;;;;;;;9.13;4.27;;;;;;;16.32;63.77;102415.84;5128459;27;20428;-61
2021/09/29 12:56:18;;;;;;;5.73;3.80;;;;;;;15.77;63.57;102309.41;5106184;27;20671;-62
2021/09/29 12:58:44;;;;;;;5.80;3.53;;;;;;;16.36;63.48;102405.38;5089333;27;20291;-61
2021/09/29 13:01:10;;;;;;;9.13;4.17;;;;;;;16.51;63.12;102417.09;5127630;27;20189;-61
2021/09/29 13:03:35;;;;;;;7.07;3.67;;;;;;;16.45;62.82;102414.00;5129842;27;20184;-61
2021/09/29 13:06:01;;;;;;;6.50;4.00;;;;;;;16.64;62.68;102413.22;5126366;27;20256;-61
2021/09/29 13:08:27;;;;;;;9.77;4.50;;;;;;;16.42;61.75;102416.88;5120374;27;20212;-62
2021/09/29 13:10:54;;;;;;;7.43;4.20;;;;;;;16.53;61.86;102409.84;5110902;27;20176;-61
2021/09/29 13:13:20;;;;;;;8.10;3.93;;;;;;;16.51;62.25;102411.50;5129842;27;20234;-62
2021/09/29 13:15:48;;;;;;;6.13;4.20;;;;;;;16.44;62.33;102406.84;5129256;27;20189;-61
2021/09/29 13:19:03;;;;;;;7.40;3.77;;;;;;;16.52;61.86;102401.13;5113627;27;20297;-61
2021/09/29 13:21:09;;;;;;;8.87;4.80;;;;;;;16.10;61.80;102330.78;5105146;27;20305;-62
2021/09/29 13:23:42;;;;;;;8.00;3.97;;;;;;;16.58;62.20;102397.38;5129387;27;20449;-60
2021/09/29 13:36:53;;;;;;;5.80;3.90;;;;;;;16.08;61.82;102352.75;5121850;27;20712;-61
2021/09/29 13:39:20;;;;;;;5.70;3.60;;;;;;;16.47;61.80;102393.22;5126320;27;20208;-61
2021/09/29 13:41:50;;;;;;;5.50;3.90;;;;;;;15.87;61.66;102297.25;5128925;27;20642;-60
2021/09/29 13:44:16;;;;;;;5.53;3.80;;;;;;;16.35;61.92;102361.81;5130293;27;20186;-62
2021/09/29 13:46:42;;;;;;;5.77;4.20;;;;;;;16.05;62.32;102288.50;5121413;27;20723;-63
2021/09/29 13:49:08;;;;;;;7.93;4.23;;;;;;;16.43;62.17;102342.91;5125868;27;20706;-64
2021/09/29 13:51:35;;;;;;;7.53;4.33;;;;;;;16.74;61.49;102389.03;5128348;27;20210;-62
2021/09/29 13:54:15;;;;;;;7.43;4.13;;;;;;;16.78;61.52;102387.75;5129401;27;20185;-64